Latest Weather Observations for Geelong Racecourse

IDV60801

Issued at 6:42 am EDT Tuesday 20 November 2018 (issued every 10 minutes, with the page automatically refreshed every 10 minutes)

About weather observations | Map of weather stations | Latest weather observations for VIC | Other Formats
Station Details ID: 087184 Name: GEELONG RACECOURSE Lat: -38.17 Lon: 144.38 Height: 12.9 m
Data from the previous 72 hours. | See also: Recent months at Geelong Racecourse
Date/Time
EDT
Temp
°C
App
Temp
°C
Dew
Point
°C
Rel
Hum
%
Delta-T
°C
Wind Press
QNH
hPa
Press
MSL
hPa
Rain since
9am
mm
Dir  Spd
km/h
Gust
km/h
Spd
kts
Gust
kts
20/06:30am 22.6 21.2 11.0 48 6.5 NE 9 17 5 9 1005.5 1005.5 0.0
20/06:00am 22.8 20.3 9.6 43 7.2 NNE 13 17 7 9 1005.5 1005.5 0.0
20/05:30am 21.5 20.0 11.8 54 5.4 NE 11 17 6 9 1005.6 1005.6 0.0
20/05:00am 21.2 19.9 12.6 58 4.9 NE 11 19 6 10 1005.4 1005.4 0.0
20/04:30am 21.3 19.9 12.2 56 5.1 NE 11 17 6 9 1005.4 1005.4 0.0
20/04:00am 21.6 19.3 11.9 54 5.5 NE 15 20 8 11 1005.5 1005.5 0.0
20/03:30am 21.8 19.3 11.2 51 5.9 NE 15 24 8 13 1005.8 1005.8 0.0
20/03:00am 21.7 19.2 11.1 51 5.9 NE 15 24 8 13 1006.1 1006.1 0.0
20/02:30am 21.2 19.4 12.1 56 5.1 NE 13 20 7 11 1006.6 1006.6 0.0
20/02:00am 21.1 19.9 12.8 59 4.7 NE 11 19 6 10 1007.0 1007.0 0.0
20/01:30am 21.1 19.6 13.0 60 4.6 NE 13 20 7 11 1007.4 1007.4 0.0
20/01:00am 21.0 19.4 12.9 60 4.6 NE 13 20 7 11 1007.9 1007.9 0.0
20/12:30am 21.5 19.8 12.4 56 5.1 NE 13 19 7 10 1008.3 1008.3 0.0
20/12:00am 22.2 19.9 11.6 51 5.9 NE 15 22 8 12 1008.5 1008.5 0.0
 
Date/Time
EDT
Temp
°C
App
Temp
°C
Dew
Point
°C
Rel
Hum
%
Delta-T
°C
Wind Press
QNH
hPa
Press
MSL
hPa
Rain since
9am
mm
Dir  Spd
km/h
Gust
km/h
Spd
kts
Gust
kts
19/11:30pm 23.2 20.3 10.9 46 6.8 ENE 17 26 9 14 1008.7 1008.7 0.0
19/11:00pm 23.4 20.4 10.8 45 7.0 ENE 17 28 9 15 1009.1 1009.1 0.0
19/10:30pm 23.7 21.6 11.1 45 7.0 ENE 13 24 7 13 1009.3 1009.3 0.0
19/10:00pm 24.4 23.1 11.4 44 7.3 E 9 19 5 10 1009.5 1009.5 0.0
19/09:30pm 25.4 23.7 11.2 41 8.0 NE 11 15 6 8 1009.5 1009.5 0.0
19/09:00pm 25.6 24.6 10.2 38 8.6 NE 6 9 3 5 1009.5 1009.5 0.0
19/08:30pm 26.2 24.8 9.5 35 9.2 NE 7 11 4 6 1009.6 1009.6 0.0
19/08:00pm 27.7 24.9 8.6 30 10.4 NNE 13 19 7 10 1009.6 1009.6 0.0
19/07:30pm 28.1 25.8 8.9 30 10.6 NNE 11 17 6 9 1009.5 1009.5 0.0
19/07:00pm 26.6 25.3 11.1 38 8.8 ENE 9 15 5 8 1009.4 1009.4 0.0
19/06:30pm 27.5 24.1 9.3 32 10.0 ENE 17 24 9 13 1009.2 1009.2 0.0
19/06:00pm 28.3 24.8 8.6 29 10.8 ENE 17 24 9 13 1009.2 1009.2 0.0
19/05:30pm 28.8 25.5 7.9 27 11.3 ENE 15 30 8 16 1009.4 1009.4 0.0
19/05:00pm 30.2 26.1 8.0 25 12.2 ENE 19 30 10 16 1009.4 1009.4 0.0
19/04:30pm 29.8 25.2 8.2 26 11.8 ENE 22 35 12 19 1009.6 1009.6 0.0
19/04:00pm 29.9 25.3 8.3 26 11.9 ENE 22 33 12 18 1010.1 1010.1 0.0
19/03:30pm 30.3 26.2 8.7 26 12.0 ENE 20 35 11 19 1010.6 1010.6 0.0
19/03:00pm 29.6 25.5 8.6 27 11.6 ENE 20 33 11 18 1011.2 1011.2 0.0
19/02:30pm 30.0 26.0 9.0 27 11.7 ENE 20 32 11 17 1011.6 1011.6 0.0
19/02:00pm 29.3 24.6 9.4 29 11.1 ENE 24 33 13 18 1011.9 1011.9 0.0
19/01:30pm 29.1 24.5 9.8 30 10.8 ENE 24 35 13 19 1012.2 1012.2 0.0
19/01:00pm 28.8 25.1 10.0 31 10.6 ENE 20 32 11 17 1012.7 1012.7 0.0
19/12:30pm 27.9 24.2 10.1 33 10.0 ENE 20 33 11 18 1013.3 1013.3 0.0
19/12:00pm 27.6 23.9 10.3 34 9.7 ENE 20 30 11 16 1013.9 1013.9 0.0
19/11:30am 27.4 23.7 9.3 32 10.0 NE 19 26 10 14 1014.4 1014.4 0.0
19/11:00am 27.7 24.1 10.0 33 9.9 NNE 19 28 10 15 1014.8 1014.8 0.0
19/10:30am 27.3 23.9 9.2 32 10.0 NNE 17 28 9 15 1014.9 1014.9 0.0
19/10:00am 26.0 22.3 9.4 35 9.1 NNE 19 26 10 14 1015.2 1015.2 0.0
19/09:30am 25.6 22.3 9.4 36 8.9 NNE 17 24 9 13 1015.5 1015.5 0.0
19/09:00am 23.8 21.1 9.0 39 8.0 NE 13 22 7 12 1015.8 1015.8 0.0
19/08:30am 20.4 17.8 10.8 54 5.2 NE 15 20 8 11 1016.0 1016.0 0.0
19/08:00am 19.6 17.6 11.4 59 4.5 NE 13 20 7 11 1016.0 1016.0 0.0
19/07:30am 17.2 16.4 13.9 81 1.9 NE 11 20 6 11 1016.1 1016.1 0.0
19/07:00am 15.9 15.0 14.9 94 0.6 NE 13 22 7 12 1015.8 1015.8 0.0
19/06:30am 11.0 10.7 10.2 95 0.4 NNE 2 6 1 3 1015.6 1015.6 0.0
19/06:00am 10.9 11.0 10.1 95 0.4 CALM 0 0 0 0 1015.5 1015.5 0.0
19/05:30am 10.9 11.0 10.1 95 0.4 CALM 0 0 0 0 1015.4 1015.4 0.0
19/05:00am 11.2 11.3 10.3 94 0.5 CALM 0 0 0 0 1015.3 1015.3 0.0
19/04:30am 11.6 11.8 10.7 94 0.5 CALM 0 0 0 0 1015.2 1015.2 0.0
19/04:00am 12.2 12.6 11.3 94 0.5 CALM 0 0 0 0 1015.3 1015.3 0.0
19/03:30am 12.2 12.2 11.3 94 0.5 SW 2 4 1 2 1015.5 1015.5 0.0
19/03:00am 12.8 13.3 11.7 93 0.6 CALM 0 2 0 1 1015.8 1015.8 0.0
19/02:30am 13.2 13.1 12.1 93 0.6 SW 4 4 2 2 1016.1 1016.1 0.0
19/02:00am 13.9 14.3 12.6 92 0.7 SW 2 4 1 2 1016.4 1016.4 0.0
19/01:30am 14.3 14.0 11.5 83 1.5 SSW 4 6 2 3 1016.7 1016.7 0.0
19/01:00am 15.1 14.9 11.7 80 1.8 SE 4 7 2 4 1017.1 1017.1 0.0
19/12:30am 14.9 14.9 9.7 71 2.7 CALM 0 0 0 0 1017.2 1017.2 0.0
19/12:00am 16.4 16.5 10.3 67 3.2 CALM 0 0 0 0 1017.5 1017.5 0.0
 
Date/Time
EDT
Temp
°C
App
Temp
°C
Dew
Point
°C
Rel
Hum
%
Delta-T
°C
Wind Press
QNH
hPa
Press
MSL
hPa
Rain since
9am
mm
Dir  Spd
km/h
Gust
km/h
Spd
kts
Gust
kts
18/11:30pm 17.2 16.5 10.1 63 3.8 E 4 6 2 3 1017.7 1017.7 0.0
18/11:00pm 17.8 17.1 9.9 60 4.2 E 4 6 2 3 1017.9 1017.9 0.0
18/10:30pm 18.7 17.4 9.8 56 4.7 E 7 13 4 7 1018.0 1018.0 0.0
18/10:00pm 19.4 18.3 9.9 54 5.1 E 6 9 3 5 1018.0 1018.0 0.0
18/09:30pm 19.8 18.9 10.5 55 5.0 ESE 6 11 3 6 1017.8 1017.8 0.0
18/09:00pm 18.3 18.6 13.4 73 2.8 SSE 4 9 2 5 1017.6 1017.6 0.0
18/08:30pm 18.9 18.8 13.3 70 3.2 S 6 7 3 4 1017.5 1017.5 0.0
18/08:00pm 20.1 19.4 13.3 65 3.9 S 9 13 5 7 1017.5 1017.5 0.0
18/07:30pm 21.0 19.9 13.2 61 4.5 S 11 17 6 9 1017.3 1017.3 0.0
18/07:00pm 21.8 20.3 13.2 58 4.9 S 13 17 7 9 1017.3 1017.3 0.0
18/06:30pm 21.9 20.0 13.0 57 5.1 S 15 20 8 11 1017.6 1017.6 0.0
18/06:00pm 21.9 19.2 11.6 52 5.7 S 17 24 9 13 1017.6 1017.6 0.0
18/05:30pm 22.2 19.0 11.3 50 6.1 S 19 26 10 14 1017.8 1017.8 0.0
18/05:00pm 22.3 19.1 11.1 49 6.2 S 19 26 10 14 1017.9 1017.9 0.0
18/04:30pm 22.4 19.0 11.2 49 6.2 SSE 20 28 11 15 1018.3 1018.3 0.0
18/04:00pm 22.9 19.6 11.6 49 6.3 SSE 20 28 11 15 1018.5 1018.5 0.0
18/03:30pm 22.4 19.2 11.8 51 6.0 SSE 20 28 11 15 1018.9 1018.9 0.0
18/03:00pm 22.3 19.2 11.7 51 5.9 SSE 19 28 10 15 1019.5 1019.5 0.0
18/02:30pm 21.9 18.6 11.0 50 6.0 S 19 26 10 14 1019.8 1019.8 0.0
18/02:00pm 21.7 18.3 11.1 51 5.8 S 20 28 11 15 1020.2 1020.2 0.0
18/01:30pm 22.5 19.1 10.6 47 6.5 S 19 26 10 14 1020.5 1020.5 0.0
18/01:00pm 22.3 19.3 10.5 47 6.5 SSE 17 26 9 14 1020.8 1020.8 0.0
18/12:30pm 21.1 19.9 11.7 55 5.2 NNE 9 15 5 8 1021.1 1021.1 0.0
18/12:00pm 20.4 19.1 12.4 60 4.5 NNE 11 15 6 8 1021.6 1021.6 0.0
18/11:30am 19.3 17.8 11.8 62 4.1 NNE 11 15 6 8 1021.9 1021.9 0.0
18/11:00am 19.5 18.6 11.5 60 4.4 NE 7 15 4 8 1022.0 1022.0 0.0
18/10:30am 19.6 18.7 11.4 59 4.5 SE 7 17 4 9 1022.2 1022.2 0.0
18/10:00am 18.4 17.5 11.2 63 3.9 SE 7 13 4 7 1022.6 1022.6 0.0
18/09:30am 17.6 16.2 10.9 65 3.6 SE 9 13 5 7 1022.7 1022.7 0.0
18/09:00am 16.7 16.1 11.8 73 2.7 ESE 6 11 3 6 1022.9 1022.9 0.0
18/08:30am 16.3 15.0 11.2 72 2.7 E 9 17 5 9 1022.9 1022.9 0.0
18/08:00am 16.0 14.8 11.6 75 2.4 E 9 15 5 8 1022.8 1022.8 0.0
18/07:30am 15.1 15.3 14.1 94 0.6 SE 6 9 3 5 1022.7 1022.7 0.0
18/07:00am 12.6 12.1 12.0 96 0.3 S 6 6 3 3 1022.5 1022.5 0.0
18/06:30am 10.6 9.8 9.8 95 0.4 S 4 7 2 4 1022.3 1022.3 0.0
18/06:00am 10.8 10.5 10.0 95 0.4 S 2 6 1 3 1022.3 1022.3 0.0
18/05:30am 11.4 10.3 10.6 95 0.4 S 7 9 4 5 1021.9 1021.9 0.0
18/05:00am 11.5 10.4 10.6 94 0.5 SSE 7 11 4 6 1021.8 1021.8 0.0
18/04:30am 11.7 10.6 10.8 94 0.5 SSE 7 11 4 6 1021.9 1021.9 0.0
18/04:00am 12.0 10.7 11.1 94 0.5 SSE 9 13 5 7 1022.1 1022.1 0.0
18/03:30am 12.3 10.7 11.4 94 0.5 SSE 11 13 6 7 1022.5 1022.5 0.0
18/03:00am 12.4 10.7 11.3 93 0.6 SSE 11 17 6 9 1022.7 1022.7 0.0
18/02:30am 12.4 10.7 11.3 93 0.6 SSE 11 15 6 8 1023.1 1023.1 0.0
18/02:00am 12.7 10.7 11.6 93 0.6 SSE 13 20 7 11 1023.4 1023.4 0.0
18/01:30am 13.0 11.4 11.7 92 0.7 SSE 11 17 6 9 1023.6 1023.6 0.0
18/01:00am 13.1 11.2 11.8 92 0.7 SSE 13 19 7 10 1023.8 1023.8 0.0
18/12:30am 13.2 11.3 11.9 92 0.7 SSE 13 19 7 10 1024.2 1024.2 0.0
18/12:00am 13.3 11.8 12.0 92 0.7 SSE 11 17 6 9 1024.5 1024.5 0.0
 
Date/Time
EDT
Temp
°C
App
Temp
°C
Dew
Point
°C
Rel
Hum
%
Delta-T
°C
Wind Press
QNH
hPa
Press
MSL
hPa
Rain since
9am
mm
Dir  Spd
km/h
Gust
km/h
Spd
kts
Gust
kts
17/11:30pm 13.1 11.6 11.8 92 0.7 SSE 11 20 6 11 1024.6 1024.6 0.0
17/11:00pm 13.2 11.7 11.9 92 0.7 SSE 11 15 6 8 1024.9 1024.9 0.0
17/10:30pm 13.5 11.7 12.2 92 0.7 SSE 13 20 7 11 1025.0 1025.0 0.0
17/10:00pm 13.4 11.5 11.8 90 0.9 SSE 13 20 7 11 1025.0 1025.0 0.0
17/09:30pm 13.5 11.1 11.4 87 1.1 SSE 15 22 8 12 1025.0 1025.0 0.0
17/09:00pm 13.3 11.2 11.2 87 1.1 S 13 17 7 9 1024.7 1024.7 0.0
17/08:30pm 13.6 10.7 9.6 77 2.0 S 15 24 8 13 1024.5 1024.5 0.0
17/08:00pm 14.2 10.8 9.0 71 2.6 S 17 24 9 13 1024.6 1024.6 0.0
17/07:30pm 14.8 9.9 8.3 65 3.3 S 24 33 13 18 1024.5 1024.5 0.0
17/07:00pm 15.3 10.2 7.8 61 3.7 S 24 35 13 19 1024.4 1024.4 0.0
17/06:30pm 15.8 9.9 7.6 58 4.1 S 28 35 15 19 1024.3 1024.3 0.0
17/06:00pm 16.2 10.7 7.7 57 4.2 S 26 35 14 19 1024.3 1024.3 0.0
17/05:30pm 16.5 11.3 7.4 55 4.5 SSE 24 35 13 19 1024.2 1024.2 0.0
17/05:00pm 17.5 12.4 7.5 52 5.0 SSE 24 33 13 18 1024.2 1024.2 0.0
17/04:30pm 16.9 11.7 7.3 53 4.8 SSE 24 35 13 19 1024.3 1024.3 0.0
17/04:00pm 17.5 13.1 7.3 51 5.1 S 20 30 11 16 1024.5 1024.5 0.0
17/03:30pm 17.8 13.0 7.2 50 5.3 SSE 22 33 12 18 1024.6 1024.6 0.0
17/03:00pm 16.9 11.8 7.5 54 4.7 S 24 33 13 18 1024.7 1024.7 0.0
17/02:30pm 17.6 12.4 7.4 51 5.1 SSE 24 35 13 19 1024.9 1024.9 0.0
17/02:00pm 17.7 12.6 7.7 52 5.0 S 24 35 13 19 1025.1 1025.1 0.0
17/01:30pm 17.6 13.0 8.2 54 4.8 SSE 22 33 12 18 1025.1 1025.1 0.0
17/01:00pm 17.4 13.0 7.2 51 5.1 SSE 20 32 11 17 1025.3 1025.3 0.0
17/12:30pm 18.2 13.9 7.9 51 5.3 S 20 32 11 17 1025.5 1025.5 0.0
17/12:00pm 16.9 12.3 6.7 51 5.0 SSE 20 33 11 18 1025.5 1025.5 0.0
17/11:30am 17.1 12.3 7.2 52 4.9 SSE 22 30 12 16 1025.6 1025.6 0.0
17/11:00am 16.8 12.4 7.2 53 4.8 SSE 20 30 11 16 1025.6 1025.6 0.0
17/10:30am 16.0 11.1 6.7 54 4.6 SSE 22 33 12 18 1025.4 1025.4 0.0
17/10:00am 15.9 11.4 7.1 56 4.3 SSE 20 32 11 17 1025.3 1025.3 0.0
17/09:30am 15.4 11.2 8.2 62 3.6 S 20 30 11 16 1025.3 1025.3 0.0
17/09:00am 15.7 10.9 7.2 57 4.2 SSE 22 30 12 16 1025.1 1025.1 0.0
17/08:30am 15.2 10.4 7.3 59 3.9 S 22 30 12 16 1024.8 1024.8 0.0
17/08:00am 15.5 11.4 8.0 61 3.7 SSE 19 28 10 15 1024.5 1024.5 0.0
17/07:30am 14.3 10.4 6.9 61 3.6 SSE 17 26 9 14 1024.4 1024.4 0.0
17/07:00am 13.4 10.3 7.2 66 3.0 SSE 13 22 7 12 1024.3 1024.3 0.0

Other Formats:

Comma delimited format used in spreadsheet applications
http://www.bom.gov.au/fwo/IDV60801/IDV60801.94857.axf

JavaScript Object Notation format (JSON) in row-major order
http://www.bom.gov.au/fwo/IDV60801/IDV60801.94857.json